Time;durP1;ratioP1;P1;durP2;ratioP2;P2;SDS_P1;SDS_P2;PMS_P1;PMS_P2;Temp;Humidity;BMP_temperature;BMP_pressure;BME280_temperature;BME280_humidity;BME280_pressure;Samples;Min_cycle;Max_cycle;Signal;HPM_P1;HPM_P2
2022/05/06 00:01:39;;;;;;;8.90;6.40;;;13.30;99.90;;;;;;5001896;28;20026;-71
2022/05/06 00:04:05;;;;;;;8.80;6.00;;;13.40;99.90;;;;;;5006935;28;20029;-71
2022/05/06 00:06:32;;;;;;;8.27;6.07;;;13.30;99.90;;;;;;5013769;28;20113;-72
2022/05/06 00:08:58;;;;;;;9.27;6.57;;;13.20;99.90;;;;;;5005067;28;20033;-71
2022/05/06 00:11:25;;;;;;;10.88;6.57;;;13.40;99.90;;;;;;5004368;28;20049;-71
2022/05/06 00:13:52;;;;;;;7.68;5.93;;;13.30;99.90;;;;;;5003730;28;20433;-71
2022/05/06 00:16:22;;;;;;;8.98;6.53;;;13.20;99.90;;;;;;5007076;28;20041;-71
2022/05/06 00:18:48;;;;;;;10.18;6.50;;;13.10;99.90;;;;;;5000914;28;20018;-71
2022/05/06 00:21:13;;;;;;;10.38;6.35;;;13.10;99.90;;;;;;5011086;28;20018;-71
2022/05/06 00:23:39;;;;;;;8.02;5.68;;;13.10;99.90;;;;;;5007743;28;20038;-71
2022/05/06 00:26:05;;;;;;;7.70;5.53;;;13.10;99.90;;;;;;5013800;28;20038;-71
2022/05/06 00:28:31;;;;;;;8.35;5.68;;;13.00;99.90;;;;;;5008533;28;20046;-71
2022/05/06 00:30:57;;;;;;;10.27;6.70;;;13.00;99.90;;;;;;5010123;28;20076;-71
2022/05/06 00:33:26;;;;;;;8.93;7.18;;;13.10;99.90;;;;;;5007948;28;20032;-71
2022/05/06 00:35:59;;;;;;;9.35;6.88;;;13.10;99.90;;;;;;5023910;28;20034;-71
2022/05/06 00:38:25;;;;;;;8.73;6.70;;;13.10;99.90;;;;;;5016628;28;20029;-71
2022/05/06 00:40:51;;;;;;;8.75;7.03;;;13.00;99.90;;;;;;5012397;28;20029;-71
2022/05/06 00:43:18;;;;;;;12.30;7.72;;;12.90;99.90;;;;;;5006719;28;20366;-71
2022/05/06 00:45:54;;;;;;;8.30;6.57;;;12.80;99.90;;;;;;5010972;28;20030;-71
2022/05/06 00:48:24;;;;;;;9.80;7.05;;;12.80;99.90;;;;;;5002740;28;20128;-71
2022/05/06 00:50:50;;;;;;;9.70;7.03;;;12.90;99.90;;;;;;5009311;28;20034;-71
2022/05/06 00:53:17;;;;;;;8.63;6.78;;;12.90;99.90;;;;;;5002701;28;20531;-72
2022/05/06 00:55:42;;;;;;;10.73;7.97;;;12.90;99.90;;;;;;5010350;28;20472;-72
2022/05/06 00:58:09;;;;;;;8.40;6.80;;;12.90;99.90;;;;;;5010618;28;20052;-71
2022/05/06 01:00:34;;;;;;;9.63;6.82;;;12.70;99.90;;;;;;5007768;28;20152;-71
2022/05/06 01:03:00;;;;;;;10.07;7.22;;;12.70;99.90;;;;;;4997961;28;20494;-71
2022/05/06 01:05:26;;;;;;;11.18;6.80;;;12.70;99.90;;;;;;5020342;28;20100;-72
2022/05/06 01:07:53;;;;;;;9.75;6.97;;;12.70;99.90;;;;;;5020869;28;20037;-72
2022/05/06 01:10:20;;;;;;;9.20;6.95;;;12.60;99.90;;;;;;5012743;28;20033;-72
2022/05/06 01:12:47;;;;;;;10.30;7.47;;;12.70;99.90;;;;;;5002998;28;20041;-71
2022/05/06 01:15:22;;;;;;;7.82;6.10;;;12.80;99.90;;;;;;5008143;28;20034;-71
2022/05/06 01:17:49;;;;;;;9.35;7.32;;;12.80;99.90;;;;;;5000157;28;20034;-71
2022/05/06 01:20:16;;;;;;;8.82;6.90;;;12.90;99.90;;;;;;4999883;28;20030;-71
2022/05/06 01:22:52;;;;;;;10.27;6.60;;;12.80;99.90;;;;;;5010449;28;20029;-71
2022/05/06 01:25:18;;;;;;;9.43;6.68;;;12.80;99.90;;;;;;5011784;28;20384;-72
2022/05/06 01:27:48;;;;;;;12.85;7.30;;;12.80;99.90;;;;;;5009533;28;20041;-71
2022/05/06 01:30:34;;;;;;;9.73;7.22;;;12.80;99.90;;;;;;5010996;28;20060;-72
2022/05/06 01:33:07;;;;;;;8.90;6.50;;;12.80;99.90;;;;;;5010043;28;20073;-71
2022/05/06 01:35:41;;;;;;;8.50;7.32;;;12.80;99.90;;;;;;5011375;28;20042;-71
2022/05/06 01:38:07;;;;;;;10.02;7.78;;;12.80;99.90;;;;;;5003025;28;20064;-71
2022/05/06 01:40:39;;;;;;;9.15;7.20;;;12.80;99.90;;;;;;5012163;28;20124;-71
2022/05/06 01:43:09;;;;;;;11.25;6.90;;;12.70;99.90;;;;;;5004565;28;20029;-71
2022/05/06 01:45:37;;;;;;;10.18;7.22;;;12.60;99.90;;;;;;5014819;28;20032;-72
2022/05/06 01:48:04;;;;;;;10.07;6.95;;;12.60;99.90;;;;;;5006979;28;20042;-72
2022/05/06 01:50:36;;;;;;;8.82;6.72;;;12.60;99.90;;;;;;5012162;28;20084;-72
2022/05/06 01:53:02;;;;;;;8.45;6.78;;;12.60;99.90;;;;;;5001999;28;20032;-72
2022/05/06 01:55:28;;;;;;;10.13;7.75;;;12.70;99.90;;;;;;5007863;28;20033;-72
2022/05/06 01:57:53;;;;;;;8.68;7.20;;;12.80;99.90;;;;;;5004403;28;20037;-71
2022/05/06 02:00:19;;;;;;;11.13;6.40;;;12.50;99.90;;;;;;5004626;28;20106;-71
2022/05/06 02:02:45;;;;;;;8.85;6.88;;;12.40;99.90;;;;;;5009296;28;20060;-71
2022/05/06 02:05:17;;;;;;;9.10;6.55;;;12.20;99.90;;;;;;5009282;28;20040;-71
2022/05/06 02:07:44;;;;;;;10.20;6.80;;;12.30;99.90;;;;;;5007246;28;20076;-71
2022/05/06 02:10:11;;;;;;;8.50;5.90;;;12.40;99.90;;;;;;5009068;28;20037;-71
2022/05/06 02:12:36;;;;;;;7.13;5.28;;;12.50;99.90;;;;;;5023467;28;20156;-72
2022/05/06 02:15:03;;;;;;;8.88;6.35;;;12.50;99.90;;;;;;5010761;28;20108;-72
2022/05/06 02:17:29;;;;;;;7.68;5.68;;;12.60;99.90;;;;;;5005773;28;20042;-71
2022/05/06 02:19:55;;;;;;;10.15;6.40;;;12.40;99.90;;;;;;5012415;28;20038;-71
2022/05/06 02:22:21;;;;;;;8.05;5.88;;;12.50;99.90;;;;;;5006462;28;20061;-72
2022/05/06 02:24:47;;;;;;;10.25;6.45;;;12.70;99.90;;;;;;5011086;28;20065;-72
2022/05/06 02:27:12;;;;;;;9.68;6.05;;;12.70;99.90;;;;;;5016228;28;20034;-71
2022/05/06 02:33:12;;;;;;;7.85;6.20;;;12.50;99.90;;;;;;5010962;28;21158;-72
2022/05/06 02:35:09;;;;;;;9.48;7.03;;;12.60;99.90;;;;;;5009089;28;20392;-71
2022/05/06 02:37:34;;;;;;;8.73;5.63;;;12.60;99.90;;;;;;5006750;28;20030;-72
2022/05/06 02:40:00;;;;;;;8.02;5.80;;;12.50;99.90;;;;;;5009327;28;20407;-71
2022/05/06 02:42:26;;;;;;;8.93;6.13;;;12.60;99.90;;;;;;5003063;28;20085;-72
2022/05/06 02:44:52;;;;;;;8.82;6.45;;;12.60;99.90;;;;;;5001576;28;20110;-71
2022/05/06 02:47:17;;;;;;;9.45;5.53;;;12.50;99.90;;;;;;5006933;28;20215;-71
2022/05/06 02:49:43;;;;;;;8.35;6.28;;;12.60;99.90;;;;;;5007035;28;20099;-71
2022/05/06 02:52:09;;;;;;;8.15;5.80;;;12.70;99.90;;;;;;5011723;28;20030;-72
2022/05/06 02:54:35;;;;;;;8.75;5.40;;;12.70;99.90;;;;;;5006243;28;20400;-72
2022/05/06 02:57:02;;;;;;;8.18;6.15;;;12.60;99.90;;;;;;5006655;28;20061;-72
2022/05/06 02:59:31;;;;;;;9.25;6.43;;;12.60;99.90;;;;;;5012483;28;20057;-72
2022/05/06 03:01:57;;;;;;;8.88;6.32;;;12.60;99.90;;;;;;5008688;28;20436;-71
2022/05/06 03:04:23;;;;;;;9.77;6.47;;;12.50;99.90;;;;;;5001882;28;20033;-71
2022/05/06 03:06:49;;;;;;;10.05;6.70;;;12.40;99.90;;;;;;5007361;28;20018;-72
2022/05/06 03:09:14;;;;;;;11.70;6.50;;;12.40;99.90;;;;;;5004755;28;20049;-71
2022/05/06 03:11:40;;;;;;;10.68;6.13;;;12.40;99.90;;;;;;4989109;28;20035;-71
2022/05/06 03:14:06;;;;;;;7.25;5.72;;;12.30;99.90;;;;;;5003739;28;20492;-71
2022/05/06 03:16:32;;;;;;;9.15;5.80;;;12.40;99.90;;;;;;4999342;28;20029;-72
2022/05/06 03:19:00;;;;;;;9.40;6.22;;;12.50;99.90;;;;;;4991829;28;20038;-71
2022/05/06 03:21:28;;;;;;;8.82;6.43;;;12.50;99.90;;;;;;4998916;28;20064;-72
2022/05/06 03:23:55;;;;;;;8.00;5.82;;;12.50;99.90;;;;;;5004498;28;20041;-72
2022/05/06 03:26:21;;;;;;;8.52;6.60;;;12.40;99.90;;;;;;5009826;28;20112;-71
2022/05/06 03:28:48;;;;;;;9.60;6.57;;;12.40;99.90;;;;;;5006696;28;20037;-72
2022/05/06 03:31:14;;;;;;;9.23;6.93;;;12.40;99.90;;;;;;4998419;28;20022;-72
2022/05/06 03:33:42;;;;;;;11.60;7.25;;;12.40;99.90;;;;;;5007701;28;20026;-71
2022/05/06 03:36:09;;;;;;;11.65;7.45;;;12.50;99.90;;;;;;5008016;28;20038;-72
2022/05/06 03:38:35;;;;;;;9.88;5.85;;;12.50;99.90;;;;;;5006541;28;20018;-71
2022/05/06 03:41:01;;;;;;;10.68;5.25;;;12.40;99.90;;;;;;5024053;28;20103;-72
2022/05/06 03:43:27;;;;;;;9.05;6.57;;;12.40;99.90;;;;;;5029328;28;20087;-72
2022/05/06 03:45:53;;;;;;;10.38;6.13;;;12.40;99.90;;;;;;5003094;28;20032;-72
2022/05/06 03:48:24;;;;;;;9.07;5.65;;;12.30;99.90;;;;;;5002737;28;20042;-71
2022/05/06 03:53:35;;;;;;;8.68;6.25;;;12.40;99.90;;;;;;4993263;28;20101;-71
2022/05/06 03:56:01;;;;;;;8.40;5.40;;;12.40;99.90;;;;;;4997278;28;20904;-72
2022/05/06 03:58:27;;;;;;;9.98;6.10;;;12.30;99.90;;;;;;4998515;28;20030;-72
2022/05/06 04:00:53;;;;;;;8.10;5.00;;;12.30;99.90;;;;;;5006469;28;20558;-72
2022/05/06 04:03:19;;;;;;;8.45;5.03;;;12.30;99.90;;;;;;5003547;28;20042;-72
2022/05/06 04:05:44;;;;;;;7.65;4.72;;;12.40;99.90;;;;;;4999010;28;20069;-72
2022/05/06 04:08:10;;;;;;;8.27;5.32;;;12.40;99.90;;;;;;5005039;28;20433;-72
2022/05/06 04:10:36;;;;;;;7.28;4.93;;;12.40;99.90;;;;;;4995549;28;20030;-71
2022/05/06 04:13:02;;;;;;;8.57;5.07;;;12.40;99.90;;;;;;5004648;28;20121;-72
2022/05/06 04:15:28;;;;;;;9.13;5.95;;;12.30;99.90;;;;;;5020875;28;20120;-72
2022/05/06 04:17:54;;;;;;;8.77;5.63;;;12.20;99.90;;;;;;5025679;28;20068;-72
2022/05/06 04:25:49;;;;;;;9.73;6.72;;;12.10;99.90;;;;;;5013302;28;20483;-72
2022/05/06 04:28:15;;;;;;;9.07;6.20;;;12.10;99.90;;;;;;4999180;28;20037;-71
2022/05/06 04:30:41;;;;;;;12.40;8.32;;;12.30;99.90;;;;;;5006445;28;20038;-72
2022/05/06 04:33:07;;;;;;;12.63;7.07;;;12.30;99.90;;;;;;5003391;28;20065;-71
2022/05/06 04:35:33;;;;;;;9.27;6.32;;;12.30;99.90;;;;;;5004815;28;20026;-71
2022/05/06 04:37:58;;;;;;;12.75;8.43;;;12.40;99.90;;;;;;5003614;28;20045;-72
2022/05/06 04:40:24;;;;;;;13.75;8.98;;;12.40;99.90;;;;;;5005708;28;20398;-72
2022/05/06 04:42:50;;;;;;;11.25;7.80;;;12.40;99.90;;;;;;4998956;28;20037;-71
2022/05/06 04:45:16;;;;;;;10.32;7.68;;;12.40;99.90;;;;;;5004447;28;20080;-71
2022/05/06 04:47:41;;;;;;;14.75;7.43;;;12.40;99.90;;;;;;5004622;28;20476;-72
2022/05/06 04:50:08;;;;;;;9.23;6.90;;;12.50;99.90;;;;;;5004423;28;20392;-72
2022/05/06 04:52:33;;;;;;;10.45;7.35;;;12.50;99.90;;;;;;5002192;28;20042;-71
2022/05/06 04:54:59;;;;;;;14.68;7.97;;;12.40;99.90;;;;;;4992208;28;20508;-71
2022/05/06 04:57:25;;;;;;;9.85;6.63;;;12.40;99.90;;;;;;5003691;28;20026;-72
2022/05/06 04:59:51;;;;;;;11.43;6.85;;;12.30;99.90;;;;;;5002111;28;20061;-72
2022/05/06 05:02:17;;;;;;;11.30;7.90;;;12.30;99.90;;;;;;5000650;28;20057;-71
2022/05/06 05:04:44;;;;;;;10.20;7.35;;;12.30;99.90;;;;;;5001289;28;20125;-72
2022/05/06 05:07:10;;;;;;;12.55;8.55;;;12.30;99.90;;;;;;4997353;28;20029;-72
2022/05/06 05:09:36;;;;;;;13.10;8.27;;;12.40;99.90;;;;;;5010535;28;20565;-71
2022/05/06 05:12:03;;;;;;;14.43;8.55;;;12.40;99.90;;;;;;5006441;28;20038;-72
2022/05/06 05:14:29;;;;;;;13.27;9.13;;;12.50;99.90;;;;;;5005583;28;20578;-71
2022/05/06 05:16:54;;;;;;;10.75;7.32;;;12.50;99.90;;;;;;5002970;28;20030;-72
2022/05/06 05:19:20;;;;;;;10.63;7.38;;;12.40;99.90;;;;;;4992707;28;20057;-72
2022/05/06 05:21:47;;;;;;;10.32;7.80;;;12.30;99.90;;;;;;4996545;28;20066;-71
2022/05/06 05:24:13;;;;;;;10.07;7.20;;;12.40;99.90;;;;;;5005704;28;20029;-71
2022/05/06 05:26:39;;;;;;;10.93;7.88;;;12.40;99.90;;;;;;4998705;28;20042;-72
2022/05/06 05:29:04;;;;;;;12.88;8.90;;;12.40;99.90;;;;;;5000732;28;20030;-71
2022/05/06 05:31:31;;;;;;;13.00;8.15;;;12.50;99.90;;;;;;5007468;28;20049;-72
2022/05/06 05:33:56;;;;;;;11.82;8.07;;;12.40;99.90;;;;;;5005964;28;20038;-71
2022/05/06 05:36:22;;;;;;;11.77;8.68;;;12.30;99.90;;;;;;4989982;28;20514;-71
2022/05/06 05:38:47;;;;;;;10.93;8.25;;;12.40;99.90;;;;;;5004009;28;20065;-72
2022/05/06 05:41:13;;;;;;;14.05;10.18;;;12.40;99.90;;;;;;5007111;28;20038;-72
2022/05/06 05:49:08;;;;;;;12.32;9.73;;;12.30;99.90;;;;;;5003592;28;20450;-71
2022/05/06 05:51:34;;;;;;;13.40;9.98;;;12.40;99.90;;;;;;5001176;28;20489;-72
2022/05/06 05:53:59;;;;;;;10.60;7.90;;;12.40;99.90;;;;;;5006488;28;20054;-71
2022/05/06 05:56:25;;;;;;;14.10;9.93;;;12.30;99.90;;;;;;5008002;28;20408;-72
2022/05/06 05:58:51;;;;;;;12.57;9.13;;;12.40;99.90;;;;;;5004745;28;20365;-71
2022/05/06 06:01:18;;;;;;;14.15;7.97;;;12.40;99.90;;;;;;5006785;28;20022;-72
2022/05/06 06:03:43;;;;;;;9.70;6.18;;;12.50;99.90;;;;;;5007435;28;20070;-71
2022/05/06 06:06:10;;;;;;;12.88;9.40;;;12.50;99.90;;;;;;5007831;28;20029;-72
2022/05/06 06:08:36;;;;;;;13.77;10.35;;;12.60;99.90;;;;;;5005168;28;20373;-72
2022/05/06 06:11:03;;;;;;;15.45;10.02;;;12.60;99.90;;;;;;5008050;28;20140;-71
2022/05/06 06:13:32;;;;;;;14.45;11.32;;;12.60;99.90;;;;;;5007837;28;20033;-71
2022/05/06 06:15:58;;;;;;;12.73;10.30;;;12.70;99.90;;;;;;5007488;28;20037;-72
2022/05/06 06:18:26;;;;;;;13.32;10.75;;;12.80;99.90;;;;;;5002540;28;20030;-72
2022/05/06 06:20:56;;;;;;;12.73;9.95;;;12.70;99.90;;;;;;5007986;28;20030;-71
2022/05/06 06:23:23;;;;;;;12.55;8.48;;;12.80;99.90;;;;;;5008283;28;20034;-72
2022/05/06 06:25:48;;;;;;;10.10;7.07;;;12.70;99.90;;;;;;5006983;28;20484;-71
2022/05/06 06:28:15;;;;;;;13.07;8.82;;;12.80;99.90;;;;;;5006198;28;20129;-71
2022/05/06 06:30:41;;;;;;;11.90;8.40;;;12.90;99.90;;;;;;5009067;28;20033;-71
2022/05/06 06:33:10;;;;;;;15.27;11.10;;;12.90;99.90;;;;;;5011979;28;20375;-72
2022/05/06 06:35:36;;;;;;;14.68;11.95;;;12.90;99.90;;;;;;5011797;28;20129;-71
2022/05/06 06:38:01;;;;;;;15.90;12.18;;;12.90;99.90;;;;;;5010607;28;20405;-71
2022/05/06 06:40:27;;;;;;;15.90;12.10;;;12.80;99.90;;;;;;5007815;28;20030;-72
2022/05/06 06:42:53;;;;;;;18.70;12.35;;;12.90;99.90;;;;;;5003524;28;20061;-71
2022/05/06 06:45:19;;;;;;;18.77;12.80;;;12.80;99.90;;;;;;5015953;28;20026;-71
2022/05/06 06:47:44;;;;;;;18.88;13.30;;;12.90;99.90;;;;;;5009754;28;21078;-72
2022/05/06 06:50:11;;;;;;;17.55;13.23;;;13.00;99.90;;;;;;4996839;28;20030;-72
2022/05/06 06:52:36;;;;;;;16.77;13.45;;;13.10;99.90;;;;;;5000229;28;20117;-71
2022/05/06 06:55:03;;;;;;;18.50;14.52;;;13.00;99.90;;;;;;5001123;28;20125;-72
2022/05/06 06:57:31;;;;;;;19.67;14.55;;;13.10;99.90;;;;;;5007327;28;20564;-71
2022/05/06 06:59:57;;;;;;;17.80;13.10;;;13.10;99.90;;;;;;4996057;28;20027;-72
2022/05/06 07:02:23;;;;;;;16.83;12.35;;;13.20;99.90;;;;;;5005107;28;20593;-72
2022/05/06 07:04:50;;;;;;;12.18;7.82;;;13.10;99.90;;;;;;5023095;28;20061;-71
2022/05/06 07:12:44;;;;;;;21.60;13.55;;;13.30;99.90;;;;;;5004366;28;20132;-72
2022/05/06 07:15:10;;;;;;;19.00;14.95;;;13.30;99.90;;;;;;5001862;28;20488;-72
2022/05/06 07:17:36;;;;;;;19.20;15.25;;;13.30;99.90;;;;;;4999061;28;20030;-72
2022/05/06 07:20:01;;;;;;;18.83;14.45;;;13.20;99.90;;;;;;5004975;28;20169;-72
2022/05/06 07:22:27;;;;;;;17.98;14.02;;;13.30;99.90;;;;;;5005387;28;20495;-72
2022/05/06 07:24:53;;;;;;;18.92;14.38;;;13.30;99.90;;;;;;5006517;28;20036;-72
2022/05/06 07:27:20;;;;;;;17.42;14.55;;;13.20;99.90;;;;;;5006180;28;20233;-72
2022/05/06 07:29:46;;;;;;;19.25;15.02;;;13.20;99.90;;;;;;5002784;28;20415;-71
2022/05/06 07:32:12;;;;;;;17.38;13.55;;;13.30;99.90;;;;;;4991562;28;20052;-71
2022/05/06 07:34:37;;;;;;;18.15;11.00;;;13.20;99.90;;;;;;5011151;28;20038;-71
2022/05/06 07:37:03;;;;;;;20.95;13.77;;;13.20;99.90;;;;;;5009465;28;20048;-71
2022/05/06 07:39:29;;;;;;;18.55;13.98;;;13.20;99.90;;;;;;5006685;28;20030;-71
2022/05/06 07:41:55;;;;;;;19.83;13.63;;;13.30;99.90;;;;;;4997830;28;20026;-71
2022/05/06 07:44:21;;;;;;;17.50;14.52;;;13.40;99.90;;;;;;4999526;28;20038;-71
2022/05/06 07:46:46;;;;;;;20.70;15.43;;;13.30;99.90;;;;;;5004541;28;20045;-71
2022/05/06 07:49:12;;;;;;;18.80;15.15;;;13.40;99.90;;;;;;5016411;28;20042;-72
2022/05/06 07:51:38;;;;;;;18.23;14.93;;;13.30;99.90;;;;;;4993511;28;20058;-72
2022/05/06 07:54:04;;;;;;;20.00;15.13;;;13.40;99.90;;;;;;4989354;28;20608;-71
2022/05/06 07:56:30;;;;;;;17.17;14.10;;;13.50;99.90;;;;;;4994932;28;20068;-71
2022/05/06 07:58:56;;;;;;;17.83;14.23;;;13.60;99.90;;;;;;4989662;28;20037;-71
2022/05/06 08:06:52;;;;;;;16.63;13.32;;;13.70;99.90;;;;;;5001212;28;20045;-72
2022/05/06 08:09:18;;;;;;;13.75;11.80;;;13.70;99.90;;;;;;5002975;28;20048;-72
2022/05/06 08:11:43;;;;;;;13.93;11.77;;;13.70;99.90;;;;;;5004872;28;20034;-71
2022/05/06 08:14:09;;;;;;;14.60;11.18;;;13.70;99.90;;;;;;5003373;28;20034;-71
2022/05/06 08:16:34;;;;;;;16.98;12.70;;;13.70;99.90;;;;;;5001992;28;20044;-71
2022/05/06 08:19:00;;;;;;;17.63;13.13;;;13.70;99.90;;;;;;5002417;28;20151;-71
2022/05/06 08:21:26;;;;;;;14.00;11.32;;;13.60;99.90;;;;;;4994773;28;20036;-71
2022/05/06 08:23:52;;;;;;;14.68;12.30;;;13.70;99.90;;;;;;5003935;28;20606;-71
2022/05/06 08:26:18;;;;;;;18.98;14.10;;;13.70;99.90;;;;;;4997558;28;20044;-71
2022/05/06 08:28:44;;;;;;;19.17;14.07;;;13.80;99.90;;;;;;5006296;28;20045;-71
2022/05/06 08:31:10;;;;;;;18.45;14.00;;;13.80;99.90;;;;;;5004372;28;20030;-71
2022/05/06 08:33:36;;;;;;;9.82;5.22;;;13.90;99.90;;;;;;4976916;28;20132;-71
2022/05/06 08:36:04;;;;;;;7.90;5.35;;;13.70;99.90;;;;;;4975734;28;20479;-71
2022/05/06 08:38:30;;;;;;;6.88;3.85;;;13.90;99.90;;;;;;4997593;28;20034;-71
2022/05/06 08:40:57;;;;;;;5.22;3.72;;;14.00;99.90;;;;;;4980549;28;20046;-71
2022/05/06 08:43:23;;;;;;;18.05;12.43;;;14.30;99.90;;;;;;4977727;28;20041;-72
2022/05/06 08:51:24;;;;;;;15.30;12.70;;;14.50;99.90;;;;;;4996908;28;20041;-72
2022/05/06 08:53:51;;;;;;;14.82;12.35;;;14.40;99.90;;;;;;4996952;28;20045;-72
2022/05/06 08:56:16;;;;;;;19.35;13.50;;;14.40;99.90;;;;;;5005916;28;20567;-71
2022/05/06 08:58:42;;;;;;;15.65;11.52;;;14.40;99.90;;;;;;5002037;28;20110;-71
2022/05/06 09:01:13;;;;;;;14.43;12.25;;;14.30;99.90;;;;;;5006262;28;20038;-72
2022/05/06 09:03:43;;;;;;;16.08;11.48;;;14.30;99.90;;;;;;5005251;28;20045;-71
2022/05/06 09:06:20;;;;;;;16.38;12.35;;;14.30;99.90;;;;;;5002758;28;20088;-72
2022/05/06 09:08:48;;;;;;;13.73;11.23;;;14.20;99.90;;;;;;4996897;28;20042;-71
2022/05/06 09:11:16;;;;;;;12.45;10.52;;;14.20;99.90;;;;;;5005716;28;20112;-72
2022/05/06 09:13:58;;;;;;;14.25;11.88;;;14.20;99.90;;;;;;5005049;28;20850;-71
2022/05/06 09:16:42;;;;;;;14.98;10.93;;;14.30;99.90;;;;;;5002220;28;20033;-71
2022/05/06 09:19:16;;;;;;;18.38;10.77;;;14.40;99.90;;;;;;4982268;28;21357;-71
2022/05/06 09:21:58;;;;;;;;;;;14.60;99.90;;;;;;4978342;28;20550;-71
2022/05/06 09:24:27;;;;;;;11.35;8.40;;;14.70;99.90;;;;;;4991101;28;20340;-71
2022/05/06 09:27:03;;;;;;;9.02;7.35;;;14.90;99.90;;;;;;5005099;28;20029;-72
2022/05/06 09:29:50;;;;;;;11.43;9.43;;;15.00;99.90;;;;;;5003933;28;20042;-72
2022/05/06 09:32:21;;;;;;;7.78;6.15;;;15.00;99.90;;;;;;5002099;28;20073;-71
2022/05/06 09:34:51;;;;;;;9.10;6.75;;;14.90;99.90;;;;;;5000666;28;20033;-72
2022/05/06 09:37:39;;;;;;;9.45;6.75;;;15.00;99.90;;;;;;4997558;28;20034;-71
2022/05/06 09:40:12;;;;;;;11.00;6.38;;;14.90;99.90;;;;;;5004848;28;20033;-71
2022/05/06 09:42:39;;;;;;;9.45;6.28;;;14.90;99.90;;;;;;5003384;28;20026;-71
2022/05/06 09:45:05;;;;;;;8.25;5.18;;;14.90;99.90;;;;;;5004662;28;20096;-72
2022/05/06 09:47:34;;;;;;;9.18;4.85;;;14.90;99.90;;;;;;4997984;28;20032;-71
2022/05/06 09:50:02;;;;;;;7.50;5.57;;;14.90;99.90;;;;;;4996491;28;20044;-72
2022/05/06 09:52:28;;;;;;;9.88;4.78;;;14.90;99.90;;;;;;4992161;28;20085;-71
2022/05/06 09:54:54;;;;;;;6.78;5.03;;;15.00;99.90;;;;;;4988410;28;20026;-71
2022/05/06 09:57:20;;;;;;;7.70;5.15;;;15.10;99.90;;;;;;4990583;28;20030;-71
2022/05/06 09:59:47;;;;;;;10.23;5.10;;;15.20;99.90;;;;;;4975712;28;20043;-71
2022/05/06 10:02:13;;;;;;;9.60;5.50;;;15.20;99.90;;;;;;4996435;28;20097;-72
2022/05/06 10:04:39;;;;;;;9.13;5.20;;;15.10;99.90;;;;;;4973541;28;20077;-71
2022/05/06 10:07:19;;;;;;;8.10;5.97;;;15.10;99.90;;;;;;4974760;28;20048;-71
2022/05/06 10:10:05;;;;;;;7.97;5.72;;;15.10;99.90;;;;;;4988423;28;20046;-72
2022/05/06 10:12:39;;;;;;;8.23;6.03;;;15.00;99.90;;;;;;4981545;28;20038;-71
2022/05/06 10:15:08;;;;;;;8.70;6.32;;;15.00;99.90;;;;;;4989604;28;20027;-71
2022/05/06 10:17:56;;;;;;;16.48;7.32;;;15.00;99.90;;;;;;5003897;28;20059;-71
2022/05/06 10:20:34;;;;;;;13.57;5.82;;;15.00;99.90;;;;;;5004419;28;20101;-71
2022/05/06 10:23:11;;;;;;;11.25;6.68;;;14.90;99.90;;;;;;5000708;28;20101;-71
2022/05/06 10:25:43;;;;;;;9.65;6.38;;;15.00;99.90;;;;;;5002973;28;20026;-71
2022/05/06 10:34:08;;;;;;;7.93;6.20;;;15.20;99.90;;;;;;4977994;28;20104;-71
2022/05/06 10:36:55;;;;;;;8.98;6.15;;;15.30;99.90;;;;;;4975325;28;20045;-72
2022/05/06 10:39:33;;;;;;;9.48;6.35;;;15.30;99.90;;;;;;4995037;28;20602;-72
2022/05/06 10:42:05;;;;;;;9.98;7.30;;;15.30;99.90;;;;;;5001645;28;20104;-71
2022/05/06 10:44:34;;;;;;;10.60;6.95;;;15.30;99.90;;;;;;5004371;28;20033;-72
2022/05/06 10:47:00;;;;;;;14.52;7.35;;;15.30;99.90;;;;;;5004080;28;20066;-72
2022/05/06 10:49:35;;;;;;;8.38;6.25;;;15.60;99.90;;;;;;4999910;28;20038;-71
2022/05/06 10:52:16;;;;;;;7.63;5.72;;;15.70;99.90;;;;;;5000133;28;20593;-71
2022/05/06 10:54:49;;;;;;;7.07;5.20;;;15.90;99.90;;;;;;4991422;28;20050;-72
2022/05/06 10:57:16;;;;;;;6.53;4.28;;;15.90;99.90;;;;;;4990589;28;20472;-71
2022/05/06 11:00:06;;;;;;;5.63;3.70;;;16.10;99.90;;;;;;5003424;28;20034;-71
2022/05/06 11:02:34;;;;;;;6.63;3.45;;;15.90;99.90;;;;;;5004412;28;20054;-71
2022/05/06 11:05:08;;;;;;;6.63;3.80;;;15.90;99.90;;;;;;5017025;28;20053;-71
2022/05/06 11:07:35;;;;;;;;;;;16.10;99.90;;;;;;4983656;28;20035;-71
2022/05/06 11:10:20;;;;;;;6.18;4.70;;;16.20;99.90;;;;;;4997600;28;19940;-71
2022/05/06 11:12:51;;;;;;;6.25;4.60;;;16.20;99.90;;;;;;5004383;28;20057;-71
2022/05/06 11:15:31;;;;;;;6.50;3.95;;;16.20;99.90;;;;;;4995193;28;20030;-71
2022/05/06 11:18:00;;;;;;;6.63;4.95;;;16.20;99.90;;;;;;5005230;28;20034;-71
2022/05/06 11:20:33;;;;;;;3.38;1.90;;;16.40;99.90;;;;;;5003591;28;20037;-71
2022/05/06 11:23:03;;;;;;;3.20;1.73;;;16.30;99.90;;;;;;4999583;28;20113;-71
2022/05/06 11:25:35;;;;;;;3.15;1.60;;;16.50;99.90;;;;;;5007560;28;20469;-71
2022/05/06 11:28:15;;;;;;;3.88;1.65;;;16.50;99.90;;;;;;5005212;28;20706;-71
2022/05/06 11:30:49;;;;;;;2.17;1.48;;;16.80;99.90;;;;;;5005811;28;20088;-72
2022/05/06 11:33:32;;;;;;;3.00;1.70;;;16.90;99.90;;;;;;4997553;28;20023;-71
2022/05/06 11:36:02;;;;;;;3.55;2.00;;;16.80;99.90;;;;;;4993436;28;20034;-71
2022/05/06 11:38:37;;;;;;;2.83;1.60;;;17.00;99.90;;;;;;5006650;28;20110;-72
2022/05/06 11:41:09;;;;;;;6.80;4.45;;;16.80;99.00;;;;;;5006417;28;20140;-72
2022/05/06 11:43:36;;;;;;;2.45;1.35;;;16.90;99.90;;;;;;5005411;28;20834;-71
2022/05/06 11:48:46;;;;;;;;;;;16.60;99.90;;;;;;5003658;28;20580;-72
2022/05/06 11:51:17;;;;;;;1.88;1.00;;;16.40;99.40;;;;;;5005630;28;19910;-72
2022/05/06 11:53:44;;;;;;;2.33;1.25;;;16.40;99.00;;;;;;5002935;28;20125;-71
2022/05/06 11:56:10;;;;;;;4.97;2.90;;;16.50;99.90;;;;;;5006375;28;20045;-71
2022/05/06 11:58:37;;;;;;;2.97;1.40;;;16.80;99.90;;;;;;5000996;28;20034;-72
2022/05/06 12:01:03;;;;;;;9.30;4.78;;;16.90;98.80;;;;;;5004475;28;20472;-71
2022/05/06 12:03:29;;;;;;;18.35;11.00;;;17.10;99.70;;;;;;5004675;28;20050;-71
2022/05/06 12:06:03;;;;;;;5.22;3.17;;;17.50;99.20;;;;;;5005644;28;20496;-71
2022/05/06 12:08:31;;;;;;;4.00;1.85;;;17.50;98.10;;;;;;5004386;28;20033;-72
2022/05/06 12:11:01;;;;;;;2.85;1.30;;;17.40;97.40;;;;;;5003222;28;20034;-71
2022/05/06 12:13:45;;;;;;;2.47;1.30;;;17.30;97.60;;;;;;5002561;28;20382;-72
2022/05/06 12:16:13;;;;;;;4.97;2.03;;;17.20;97.20;;;;;;4994716;28;20120;-71
2022/05/06 12:18:52;;;;;;;5.80;3.80;;;17.50;99.90;;;;;;5001612;28;20030;-71
2022/05/06 12:21:19;;;;;;;2.30;1.20;;;17.80;98.00;;;;;;5005076;28;20034;-71
2022/05/06 12:23:59;;;;;;;4.20;1.40;;;17.70;97.50;;;;;;4999078;28;20030;-71
2022/05/06 12:26:36;;;;;;;4.35;2.38;;;17.90;97.60;;;;;;5000617;28;20068;-72
2022/05/06 12:29:04;;;;;;;3.72;1.33;;;18.00;97.70;;;;;;5005127;28;20508;-71
2022/05/06 12:31:31;;;;;;;14.10;7.60;;;18.20;97.00;;;;;;5006581;28;20065;-70
2022/05/06 12:34:07;;;;;;;6.18;3.10;;;18.10;96.70;;;;;;5001458;28;20030;-70
2022/05/06 12:36:34;;;;;;;34.25;18.23;;;18.10;96.70;;;;;;4989288;28;20042;-70
2022/05/06 12:39:00;;;;;;;13.23;5.93;;;18.10;96.90;;;;;;5001079;28;20128;-70
2022/05/06 12:41:36;;;;;;;2.53;1.08;;;18.20;96.70;;;;;;4998296;28;20430;-70
2022/05/06 12:44:21;;;;;;;5.80;2.90;;;17.80;96.10;;;;;;5001408;28;20030;-70
2022/05/06 12:46:48;;;;;;;2.80;1.20;;;17.90;96.10;;;;;;5006240;28;20022;-70
2022/05/06 12:49:47;;;;;;;3.05;1.10;;;17.80;96.00;;;;;;4991397;28;20034;-70
2022/05/06 12:52:10;;;;;;;6.28;3.13;;;17.70;95.70;;;;;;4982789;28;20064;-70
2022/05/06 12:54:37;;;;;;;1.60;1.05;;;17.80;96.70;;;;;;4988344;28;20022;-70
2022/05/06 12:57:04;;;;;;;3.50;1.50;;;17.70;95.70;;;;;;4999697;28;20045;-70
2022/05/06 12:59:29;;;;;;;2.40;1.15;;;17.60;95.70;;;;;;5006366;28;20932;-70
2022/05/06 13:01:56;;;;;;;2.20;1.05;;;17.50;96.20;;;;;;5002012;28;20042;-71
2022/05/06 13:04:22;;;;;;;3.17;1.35;;;17.70;95.90;;;;;;5002123;28;20149;-71
2022/05/06 13:06:48;;;;;;;5.65;2.35;;;17.60;96.20;;;;;;5005761;28;20046;-70
2022/05/06 13:09:14;;;;;;;2.70;1.20;;;17.70;96.00;;;;;;5003102;28;20034;-70
2022/05/06 13:11:40;;;;;;;1.88;1.23;;;17.70;96.30;;;;;;5004983;28;20028;-70
2022/05/06 13:14:07;;;;;;;4.03;1.88;;;17.60;96.30;;;;;;5001541;28;20396;-70
2022/05/06 13:16:35;;;;;;;5.00;1.90;;;17.60;97.60;;;;;;5005980;28;20041;-70
2022/05/06 13:19:02;;;;;;;2.55;1.38;;;17.60;98.10;;;;;;5003658;28;20030;-70
2022/05/06 13:21:27;;;;;;;2.13;1.25;;;17.60;98.00;;;;;;5005851;28;20033;-70
2022/05/06 13:23:53;;;;;;;2.33;1.30;;;17.50;97.60;;;;;;5005271;28;20030;-70
2022/05/06 13:26:19;;;;;;;2.40;1.13;;;17.50;98.20;;;;;;5005425;28;20025;-70
2022/05/06 13:28:44;;;;;;;50.53;37.20;;;17.60;98.10;;;;;;5004078;28;20067;-70